Southern California Logo

Castaic, CA Single Family Real Estate Listings

48 Total Real Estate Listings * Click on table heading to sort
Date Posted Property Type Style Address Price Living Area Lot Size Price/Sq Ft.
2019-11-14 Single Family 31926 Green Hill Drive Castaic, CA 91384 $565,000 1,467 sq. ft. 13,939 sq. ft. $385
2019-11-09 Single Family Mediterranean 29924 Shadow Place Castaic, CA 91384 $625,000 1,809 sq. ft. 5,227 sq. ft. $345
2019-11-07 Single Family 31367 Castaic Oaks Lane Castaic, CA 91384 $499,000 1,960 sq. ft. 229,997 sq. ft. $255
2019-11-06 Single Family 28602 Heather Lane Castaic, CA 91384 $595,000 1,959 sq. ft. 8,712 sq. ft. $304
2019-11-01 Single Family Contemporary 27962 Bridlewood Drive Castaic, CA 91384 $664,888 2,368 sq. ft. 7,405 sq. ft. $281
2019-10-31 Single Family 32131 Big Oak Lane Castaic, CA 91384 $600,000 2,590 sq. ft. 5,227 sq. ft. $232
2019-10-27 Single Family Traditional 30402 Marseille Place Castaic, CA 91384 $629,900 2,326 sq. ft. 6,098 sq. ft. $271
2019-10-25 Single Family Traditional 27618 Firebrand Drive Castaic, CA 91384 $578,000 2,000 sq. ft. 6,534 sq. ft. $289
2019-10-24 Single Family 28119 Springvale Lane Castaic, CA 91384 $625,000 1,809 sq. ft. 9,148 sq. ft. $345
2019-10-22 Single Family 29330 Hidden Trail Road Castaic, CA 91384 $524,000 1,512 sq. ft. 5,663 sq. ft. $347
2019-10-20 Single Family 28136 Windy Way Castaic, CA 91384 $549,900 1,467 sq. ft. 13,504 sq. ft. $375
2019-10-19 Single Family 27712 Boulder Street Castaic, CA 91384 $479,000 1,933 sq. ft. 87,120 sq. ft. $248
2019-10-18 Single Family Traditional 28243 Royal Road Castaic, CA 91384 $529,000 1,319 sq. ft. 17,424 sq. ft. $401
2019-10-17 Single Family 27742 Boulder Street Castaic, CA 91384 $465,000 1,933 sq. ft. 87,120 sq. ft. $241
2019-10-16 Single Family 32256 Shadow Lake Lane Castaic, CA 91384 $675,000 3,355 sq. ft. 4,792 sq. ft. $201
2019-10-12 Single Family Traditional 30375 June Rose Court Castaic, CA 91384 $674,500 2,768 sq. ft. 6,098 sq. ft. $244
2019-10-11 Single Family Traditional 28332 Foothill Road Castaic, CA 91384 $605,000 1,851 sq. ft. 6,534 sq. ft. $327
2019-10-10 Single Family 30073 Cambridge Avenue Castaic, CA 91384 $708,450 3,400 sq. ft. 6,098 sq. ft. $208
2019-10-10 Single Family 30266 Cedar Oak Lane Castaic, CA 91384 $499,999 1,503 sq. ft. 3,049 sq. ft. $333
2019-10-07 Single Family Traditional 30161 Valley Glen Street Castaic, CA 91384 $1,150,000 3,154 sq. ft. 28,750 sq. ft. $365
2019-10-06 Single Family Traditional 28661 Oak Hill Court Castaic, CA 91384 $679,661 2,732 sq. ft. 8,276 sq. ft. $249
2019-10-05 Single Family 31409 Arena Drive Castaic, CA 91384 $459,000 1,933 sq. ft. 99,752 sq. ft. $237
2019-10-02 Single Family 30319 Cedar Oak Lane Castaic, CA 91384 $530,000 1,861 sq. ft. 105,851 sq. ft. $285
2019-09-23 Single Family 28149 Gibraltar Lane Castaic, CA 91384 $619,900 2,052 sq. ft. 5,663 sq. ft. $302
2019-09-23 Single Family Cape Cod 28481 Victoria Road Castaic, CA 91384 $514,900 1,257 sq. ft. 5,663 sq. ft. $410
2019-09-20 Single Family Contemporary 28638 Lupine Street Castaic, CA 91384 $708,000 2,611 sq. ft. 9,583 sq. ft. $271
2019-09-19 Single Family 28159 Royal Road Castaic, CA 91384 $500,000 1,257 sq. ft. 13,068 sq. ft. $398
2019-09-13 Single Family 28038 Gold Hill Drive Castaic, CA 91384 $508,500 1,067 sq. ft. 6,970 sq. ft. $477
2019-09-10 Single Family Ranch 30015 Valley Glen Street Castaic, CA 91384 $1,239,000 3,674 sq. ft. 189,922 sq. ft. $337
2019-09-09 Single Family Contemporary 31346 Cherry Drive Castaic, CA 91384 $535,000 1,308 sq. ft. 6,534 sq. ft. $409
2019-09-07 Single Family Modern 27588 Onyx Lane Castaic, CA 91384 $395,000 1,392 sq. ft. 4,356 sq. ft. $284
2019-09-05 Single Family 30809 Desert Shadow Road Castaic, CA 91384 $944,000 2,345 sq. ft. 144,184 sq. ft. $403
2019-08-29 Single Family Patio Home 32796 Ridge Top Lane Castaic, CA 91384 $725,000 4,183 sq. ft. 5,663 sq. ft. $173
2019-08-25 Single Family 28869 Paradise Road Castaic, CA 91384 $750,000 2,232 sq. ft. 1,509,790 sq. ft. $336
2019-08-21 Single Family 28616 Cloverleaf Place Castaic, CA 91384 $629,900 2,115 sq. ft. 5,663 sq. ft. $298
2019-08-14 Single Family 30739 San Martinez Road Castaic, CA 91384 $450,000 2,967 sq. ft. 45,738 sq. ft. $152
2019-08-06 Single Family 27811 Pine Crest Place Castaic, CA 91384 $699,999 3,343 sq. ft. 5,663 sq. ft. $209
2019-08-06 Single Family 30560 Appalachian Drive Castaic, CA 91384 $649,900 2,611 sq. ft. 6,098 sq. ft. $249
2019-08-06 Single Family Traditional 29539 Cromwell Avenue Castaic, CA 91384 $470,000 1,424 sq. ft. 4,792 sq. ft. $330
2019-08-05 Single Family 32043 Cypress Way Castaic, CA 91384 $574,900 2,008 sq. ft. 4,792 sq. ft. $286
2019-05-20 Single Family Traditional 30014 Sharp Road Castaic, CA 91384 $1,375,000 3,929 sq. ft. 63,598 sq. ft. $350
2019-04-26 Single Family 29886 Muledeer Lane Castaic, CA 91384 $619,900 2,230 sq. ft. 20,909 sq. ft. $278
2019-04-12 Single Family Ranch 30433 Hidden Valley Court Castaic, CA 91384 $1,250,000 3,674 sq. ft. 40,511 sq. ft. $340
2019-03-25 Single Family 25643 Tapia Canyon Rd Castaic, CA 91310 $895,995 3,395 sq. ft. 522,720 sq. ft. $264
2018-10-22 Single Family 30703 San Martinez Castaic, CA 91384 $275,000 2,250 sq. ft. 20,038 sq. ft. $122
2017-06-13 Single Family Traditional 30246 Cedar Oak Lane Castaic, CA 91384 $485,000 1,994 sq. ft. 105,851 sq. ft. $243
2017-06-08 Single Family Traditional 27608 Hartford Avenue Castaic, CA 91384 $459,500 971 sq. ft. 5,663 sq. ft. $473
2017-05-05 Single Family Traditional 27654 Hartford Avenue Castaic, CA 91384 $554,900 2,282 sq. ft. 5,227 sq. ft. $243